createdAt,value
2019-06-27T00:00:27.349Z,15.72
2019-06-27T00:01:01.797Z,11.90
2019-06-27T00:01:36.638Z,9.88
2019-06-27T00:02:11.495Z,13.50
2019-06-27T00:02:45.834Z,18.35
2019-06-27T00:03:20.744Z,12.45
2019-06-27T00:03:55.509Z,14.35
2019-06-27T00:04:29.943Z,13.68
2019-06-27T00:05:05.034Z,10.38
2019-06-27T00:05:39.776Z,10.75
2019-06-27T00:06:14.016Z,11.88
2019-06-27T00:06:48.694Z,13.00
2019-06-27T00:07:23.407Z,15.13
2019-06-27T00:07:57.774Z,12.10
2019-06-27T00:08:32.796Z,13.88
2019-06-27T00:09:10.088Z,18.50
2019-06-27T00:09:44.429Z,14.43
2019-06-27T00:10:19.935Z,13.18
2019-06-27T00:10:54.796Z,13.32
2019-06-27T00:11:29.179Z,10.90
2019-06-27T00:12:04.118Z,12.53
2019-06-27T00:12:38.928Z,13.50
2019-06-27T00:13:13.203Z,11.60
2019-06-27T00:13:47.948Z,11.70
2019-06-27T00:14:22.667Z,10.32
2019-06-27T00:14:57.077Z,11.97
2019-06-27T00:15:31.892Z,10.48
2019-06-27T00:16:06.809Z,10.98
2019-06-27T00:16:41.114Z,14.33
2019-06-27T00:17:15.911Z,10.78
2019-06-27T00:17:50.838Z,11.85
2019-06-27T00:18:25.226Z,12.07
2019-06-27T00:18:59.947Z,13.30
2019-06-27T00:19:34.906Z,12.45
2019-06-27T00:20:09.537Z,15.85
2019-06-27T00:20:44.377Z,12.47
2019-06-27T00:21:19.286Z,11.15
2019-06-27T00:21:53.574Z,10.68
2019-06-27T00:22:28.563Z,11.57
2019-06-27T00:23:03.374Z,10.90
2019-06-27T00:23:37.640Z,10.43
2019-06-27T00:24:12.278Z,13.93
2019-06-27T00:24:47.103Z,11.18
2019-06-27T00:25:21.260Z,10.78
2019-06-27T00:25:56.081Z,12.37
2019-06-27T00:26:30.827Z,10.63
2019-06-27T00:27:05.218Z,10.63
2019-06-27T00:27:40.102Z,13.05
2019-06-27T00:28:14.999Z,10.85
2019-06-27T00:28:49.226Z,10.75
2019-06-27T00:29:23.889Z,10.55
2019-06-27T00:29:59.726Z,11.22
2019-06-27T00:30:33.991Z,10.43
2019-06-27T00:31:08.770Z,11.80
2019-06-27T00:31:43.429Z,15.10
2019-06-27T00:32:17.871Z,12.90
2019-06-27T00:32:52.694Z,12.43
2019-06-27T00:33:27.333Z,11.63
2019-06-27T00:34:01.388Z,12.33
2019-06-27T00:34:36.320Z,11.35
2019-06-27T00:35:11.406Z,16.32
2019-06-27T00:35:45.540Z,11.30
2019-06-27T00:36:20.455Z,12.47
2019-06-27T00:36:55.290Z,11.48
2019-06-27T00:37:29.685Z,14.55
2019-06-27T00:38:04.514Z,11.80
2019-06-27T00:38:39.398Z,10.25
2019-06-27T00:39:13.614Z,13.15
2019-06-27T00:39:48.534Z,11.88
2019-06-27T00:40:23.445Z,14.35
2019-06-27T00:40:57.727Z,11.08
2019-06-27T00:41:32.575Z,12.37
2019-06-27T00:42:07.364Z,12.80
2019-06-27T00:42:41.736Z,12.18
2019-06-27T00:43:16.611Z,15.68
2019-06-27T00:43:51.399Z,13.15
2019-06-27T00:44:25.648Z,11.70
2019-06-27T00:45:00.343Z,12.13
2019-06-27T00:45:35.159Z,11.35
2019-06-27T00:46:09.485Z,13.78
2019-06-27T00:46:44.300Z,11.05
2019-06-27T00:47:19.139Z,11.88
2019-06-27T00:47:53.364Z,12.75
2019-06-27T00:48:28.191Z,10.43
2019-06-27T00:49:03.186Z,12.15
2019-06-27T00:49:37.348Z,12.50
2019-06-27T00:50:12.797Z,11.12
2019-06-27T00:50:47.740Z,12.05
2019-06-27T00:51:22.194Z,12.45
2019-06-27T00:51:57.002Z,12.43
2019-06-27T00:52:31.708Z,11.85
2019-06-27T00:53:06.018Z,13.25
2019-06-27T00:53:40.895Z,14.60
2019-06-27T00:54:15.864Z,11.05
2019-06-27T00:54:50.180Z,12.58
2019-06-27T00:55:26.081Z,13.60
2019-06-27T00:56:00.956Z,11.93
2019-06-27T00:56:35.441Z,12.15
2019-06-27T00:57:14.453Z,11.53
2019-06-27T00:57:47.084Z,13.90
2019-06-27T00:58:21.496Z,14.63
2019-06-27T00:58:56.259Z,12.65
2019-06-27T00:59:31.154Z,13.28
2019-06-27T01:00:06.787Z,11.60
2019-06-27T01:00:41.709Z,15.93
2019-06-27T01:01:16.598Z,12.13
2019-06-27T01:01:50.862Z,14.18
2019-06-27T01:02:25.738Z,12.80
2019-06-27T01:03:00.648Z,13.95
2019-06-27T01:03:34.899Z,12.10
2019-06-27T01:04:09.700Z,13.03
2019-06-27T01:04:44.604Z,14.45
2019-06-27T01:05:19.081Z,11.80
2019-06-27T01:05:53.817Z,11.78
2019-06-27T01:06:28.735Z,13.83
2019-06-27T01:07:02.974Z,12.35
2019-06-27T01:07:38.175Z,12.78
2019-06-27T01:08:13.015Z,12.85
2019-06-27T01:08:47.615Z,13.62
2019-06-27T01:09:22.342Z,14.13
2019-06-27T01:10:00.286Z,12.85
2019-06-27T01:10:32.959Z,12.03
2019-06-27T01:11:07.890Z,11.93
2019-06-27T01:11:42.915Z,11.45
2019-06-27T01:12:17.130Z,11.95
2019-06-27T01:12:51.918Z,11.43
2019-06-27T01:13:26.998Z,13.60
2019-06-27T01:14:01.166Z,12.85
2019-06-27T01:14:36.037Z,12.75
2019-06-27T01:15:11.272Z,14.33
2019-06-27T01:15:45.700Z,14.40
2019-06-27T01:16:20.623Z,12.63
2019-06-27T01:16:55.378Z,13.88
2019-06-27T01:17:29.614Z,11.48
2019-06-27T01:18:04.509Z,15.70
2019-06-27T01:18:39.401Z,12.13
2019-06-27T01:19:13.884Z,12.00
2019-06-27T01:19:48.642Z,12.53
2019-06-27T01:20:23.527Z,14.15
2019-06-27T01:20:57.903Z,13.22
2019-06-27T01:21:32.697Z,12.80
2019-06-27T01:22:07.415Z,11.55
2019-06-27T01:22:41.865Z,12.37
2019-06-27T01:23:16.656Z,13.25
2019-06-27T01:23:51.712Z,15.78
2019-06-27T01:24:26.000Z,12.50
2019-06-27T01:25:00.743Z,12.73
2019-06-27T01:25:35.619Z,12.47
2019-06-27T01:26:09.786Z,11.65
2019-06-27T01:26:44.615Z,15.15
2019-06-27T01:27:29.647Z,17.42
2019-06-27T01:27:55.500Z,14.63
2019-06-27T01:28:30.273Z,14.70
2019-06-27T01:29:05.249Z,13.88
2019-06-27T01:29:39.666Z,18.30
2019-06-27T01:30:15.508Z,14.15
2019-06-27T01:30:50.266Z,12.85
2019-06-27T01:31:24.685Z,12.70
2019-06-27T01:31:59.524Z,20.27
2019-06-27T01:32:34.454Z,11.80
2019-06-27T01:33:08.730Z,12.15
2019-06-27T01:33:43.765Z,13.25
2019-06-27T01:34:18.587Z,12.13
2019-06-27T01:34:52.868Z,14.05
2019-06-27T01:35:27.843Z,12.33
2019-06-27T01:36:02.639Z,13.72
2019-06-27T01:36:36.860Z,12.40
2019-06-27T01:37:11.577Z,13.50
2019-06-27T01:37:46.253Z,14.05
2019-06-27T01:38:20.559Z,15.40
2019-06-27T01:38:55.536Z,12.47
2019-06-27T01:39:30.498Z,12.50
2019-06-27T01:40:05.567Z,13.18
2019-06-27T01:40:40.432Z,12.50
2019-06-27T01:41:15.331Z,13.10
2019-06-27T01:41:49.554Z,13.65
2019-06-27T01:42:24.211Z,12.73
2019-06-27T01:42:58.944Z,14.05
2019-06-27T01:43:33.094Z,15.55
2019-06-27T01:44:09.739Z,13.20
2019-06-27T01:44:55.269Z,17.45
2019-06-27T01:45:35.874Z,14.13
2019-06-27T01:46:10.685Z,13.95
2019-06-27T01:46:45.588Z,14.98
2019-06-27T01:47:19.737Z,14.35
2019-06-27T01:47:54.605Z,16.45
2019-06-27T01:48:29.508Z,14.53
2019-06-27T01:49:03.622Z,14.20
2019-06-27T01:49:38.341Z,13.53
2019-06-27T01:50:13.167Z,14.23
2019-06-27T01:50:47.563Z,16.20
2019-06-27T01:51:22.616Z,18.20
2019-06-27T01:51:57.378Z,18.35
2019-06-27T01:52:32.016Z,19.25
2019-06-27T01:53:06.869Z,13.65
2019-06-27T01:53:41.638Z,14.05
2019-06-27T01:54:15.731Z,13.58
2019-06-27T01:54:50.665Z,15.30
2019-06-27T01:55:25.467Z,13.90
2019-06-27T01:55:59.636Z,14.47
2019-06-27T01:56:34.614Z,18.42
2019-06-27T01:57:09.396Z,14.73
2019-06-27T01:57:47.081Z,14.80
2019-06-27T01:58:20.793Z,14.20
2019-06-27T01:58:55.606Z,19.25
2019-06-27T01:59:29.901Z,14.15
2019-06-27T02:00:05.727Z,12.60
2019-06-27T02:00:40.625Z,17.27
2019-06-27T02:01:15.080Z,16.85
2019-06-27T02:01:49.840Z,14.07
2019-06-27T02:02:24.564Z,14.18
2019-06-27T02:02:58.949Z,13.78
2019-06-27T02:03:33.775Z,13.78
2019-06-27T02:04:08.846Z,14.85
2019-06-27T02:04:42.899Z,15.58
2019-06-27T02:05:18.023Z,14.13
2019-06-27T02:05:52.893Z,16.73
2019-06-27T02:06:27.276Z,14.35
2019-06-27T02:07:02.221Z,13.62
2019-06-27T02:07:37.709Z,15.55
2019-06-27T02:08:12.147Z,16.05
2019-06-27T02:08:47.044Z,14.98
2019-06-27T02:09:21.958Z,14.03
2019-06-27T02:09:56.296Z,13.88
2019-06-27T02:10:31.287Z,17.45
2019-06-27T02:11:06.162Z,25.60
2019-06-27T02:11:40.317Z,20.80
2019-06-27T02:12:15.209Z,23.50
2019-06-27T02:12:50.069Z,14.80
2019-06-27T02:13:24.538Z,17.30
2019-06-27T02:13:59.274Z,15.32
2019-06-27T02:14:34.210Z,18.50
2019-06-27T02:15:08.723Z,19.37
2019-06-27T02:15:44.195Z,21.52
2019-06-27T02:16:19.172Z,20.88
2019-06-27T02:16:53.684Z,23.05
2019-06-27T02:17:28.564Z,19.90
2019-06-27T02:18:03.204Z,16.67
2019-06-27T02:18:37.346Z,14.03
2019-06-27T02:19:12.181Z,17.90
2019-06-27T02:19:47.249Z,15.75
2019-06-27T02:20:22.055Z,19.67
2019-06-27T02:20:56.976Z,17.25
2019-06-27T02:21:31.902Z,17.12
2019-06-27T02:22:06.177Z,18.48
2019-06-27T02:22:41.137Z,14.58
2019-06-27T02:23:16.213Z,14.20
2019-06-27T02:23:50.673Z,15.00
2019-06-27T02:24:25.739Z,17.90
2019-06-27T02:25:00.575Z,19.42
2019-06-27T02:25:34.815Z,15.68
2019-06-27T02:26:09.627Z,14.65
2019-06-27T02:26:44.426Z,16.42
2019-06-27T02:27:18.837Z,17.35
2019-06-27T02:28:03.178Z,16.30
2019-06-27T02:28:30.013Z,14.98
2019-06-27T02:29:04.509Z,14.70
2019-06-27T02:29:39.433Z,16.35
2019-06-27T02:30:16.519Z,17.65
2019-06-27T02:30:50.884Z,15.95
2019-06-27T02:31:25.703Z,16.75
2019-06-27T02:32:00.346Z,16.70
2019-06-27T02:32:34.587Z,15.55
2019-06-27T02:33:10.199Z,15.85
2019-06-27T02:33:44.835Z,16.48
2019-06-27T02:34:19.092Z,17.35
2019-06-27T02:34:53.749Z,18.10
2019-06-27T02:35:28.381Z,16.12
2019-06-27T02:36:02.926Z,16.82
2019-06-27T02:36:37.791Z,17.50
2019-06-27T02:37:12.774Z,16.05
2019-06-27T02:37:47.064Z,15.38
2019-06-27T02:38:21.875Z,16.12
2019-06-27T02:38:56.791Z,16.40
2019-06-27T02:39:31.126Z,18.65
2019-06-27T02:40:06.935Z,17.12
2019-06-27T02:40:41.722Z,16.45
2019-06-27T02:41:16.155Z,20.12
2019-06-27T02:41:50.961Z,18.57
2019-06-27T02:42:25.877Z,19.98
2019-06-27T02:43:00.502Z,19.87
2019-06-27T02:43:35.357Z,16.35
2019-06-27T02:44:10.461Z,17.07
2019-06-27T02:44:44.809Z,17.73
2019-06-27T02:45:20.030Z,20.70
2019-06-27T02:45:54.988Z,17.42
2019-06-27T02:46:29.394Z,17.80
2019-06-27T02:47:04.314Z,16.02
2019-06-27T02:47:39.228Z,18.40
2019-06-27T02:48:13.708Z,20.02
2019-06-27T02:48:48.473Z,22.90
2019-06-27T02:49:23.390Z,18.57
2019-06-27T02:49:58.077Z,16.37
2019-06-27T02:50:33.103Z,17.40
2019-06-27T02:51:07.936Z,18.42
2019-06-27T02:51:42.202Z,17.92
2019-06-27T02:52:16.975Z,18.12
2019-06-27T02:52:51.875Z,17.70
2019-06-27T02:53:26.017Z,16.87
2019-06-27T02:54:00.836Z,17.62
2019-06-27T02:54:35.658Z,15.93
2019-06-27T02:55:09.956Z,19.35
2019-06-27T02:55:45.032Z,15.60
2019-06-27T02:56:19.965Z,16.87
2019-06-27T02:56:54.338Z,19.00
2019-06-27T02:57:29.058Z,16.07
2019-06-27T02:58:27.669Z,17.57
2019-06-27T02:58:39.893Z,17.17
2019-06-27T02:59:14.849Z,17.95
2019-06-27T02:59:49.714Z,16.17
2019-06-27T03:00:24.195Z,15.80
2019-06-27T03:00:59.064Z,17.57
2019-06-27T03:01:34.027Z,16.40
2019-06-27T03:02:08.390Z,15.63
2019-06-27T03:02:43.463Z,15.68
2019-06-27T03:03:18.347Z,15.28
2019-06-27T03:03:52.662Z,15.63
2019-06-27T03:04:27.605Z,16.07
2019-06-27T03:05:02.496Z,15.03
2019-06-27T03:05:37.034Z,16.00
2019-06-27T03:06:11.946Z,14.10
2019-06-27T03:06:46.886Z,17.00
2019-06-27T03:07:21.168Z,16.27
2019-06-27T03:07:56.065Z,16.90
2019-06-27T03:08:30.945Z,15.78
2019-06-27T03:09:05.878Z,16.37
2019-06-27T03:09:41.047Z,15.85
2019-06-27T03:10:16.495Z,16.62
2019-06-27T03:10:50.841Z,17.87
2019-06-27T03:11:25.769Z,21.02
2019-06-27T03:12:00.984Z,16.20
2019-06-27T03:12:35.794Z,15.63
2019-06-27T03:13:10.803Z,18.95
2019-06-27T03:13:45.775Z,16.65
2019-06-27T03:14:20.289Z,15.08
2019-06-27T03:14:55.413Z,15.88
2019-06-27T03:15:30.246Z,16.40
2019-06-27T03:16:04.728Z,16.27
2019-06-27T03:16:39.631Z,16.17
2019-06-27T03:17:14.621Z,17.85
2019-06-27T03:17:48.922Z,15.08
2019-06-27T03:18:23.572Z,16.42
2019-06-27T03:18:58.895Z,15.28
2019-06-27T03:19:33.347Z,15.30
2019-06-27T03:20:09.104Z,15.63
2019-06-27T03:20:44.338Z,18.05
2019-06-27T03:21:18.626Z,16.17
2019-06-27T03:21:53.605Z,19.23
2019-06-27T03:22:28.520Z,16.10
2019-06-27T03:23:02.950Z,16.45
2019-06-27T03:23:37.784Z,15.78
2019-06-27T03:24:12.599Z,15.95
2019-06-27T03:24:47.118Z,16.70
2019-06-27T03:25:22.190Z,21.23
2019-06-27T03:25:57.020Z,19.15
2019-06-27T03:26:31.635Z,16.00
2019-06-27T03:27:06.629Z,18.62
2019-06-27T03:27:41.556Z,17.00
2019-06-27T03:28:15.973Z,15.00
2019-06-27T03:28:53.877Z,15.25
2019-06-27T03:29:27.461Z,19.62
2019-06-27T03:30:01.698Z,14.83
2019-06-27T03:30:37.066Z,16.32
2019-06-27T03:31:11.959Z,17.82
2019-06-27T03:31:46.301Z,14.13
2019-06-27T03:32:21.174Z,16.23
2019-06-27T03:32:56.208Z,15.20
2019-06-27T03:33:30.672Z,13.95
2019-06-27T03:34:05.910Z,12.53
2019-06-27T03:34:41.002Z,22.87
2019-06-27T03:35:15.298Z,23.00
2019-06-27T03:35:50.260Z,23.60
2019-06-27T03:36:25.090Z,21.62
2019-06-27T03:36:59.635Z,32.83
2019-06-27T03:37:34.578Z,23.85
2019-06-27T03:38:09.581Z,17.55
2019-06-27T03:38:43.932Z,27.55
2019-06-27T03:39:18.776Z,28.38
2019-06-27T03:39:53.748Z,21.82
2019-06-27T03:40:28.169Z,16.52
2019-06-27T03:41:03.208Z,18.23
2019-06-27T03:41:38.079Z,16.52
2019-06-27T03:42:12.356Z,13.45
2019-06-27T03:42:47.289Z,13.72
2019-06-27T03:43:22.266Z,16.25
2019-06-27T03:43:56.586Z,14.70
2019-06-27T03:44:31.647Z,12.82
2019-06-27T03:45:07.242Z,16.48
2019-06-27T03:45:41.802Z,15.58
2019-06-27T03:46:16.895Z,12.75
2019-06-27T03:46:51.960Z,13.00
2019-06-27T03:47:26.684Z,12.58
2019-06-27T03:48:01.537Z,13.05
2019-06-27T03:48:36.495Z,13.62
2019-06-27T03:49:10.804Z,13.18
2019-06-27T03:49:45.836Z,12.40
2019-06-27T03:50:20.855Z,13.55
2019-06-27T03:50:56.436Z,17.07
2019-06-27T03:51:31.596Z,15.38
2019-06-27T03:52:06.921Z,12.63
2019-06-27T03:52:41.325Z,15.43
2019-06-27T03:53:16.249Z,15.95
2019-06-27T03:53:51.365Z,15.05
2019-06-27T03:54:25.746Z,12.03
2019-06-27T03:55:00.680Z,12.28
2019-06-27T03:55:35.723Z,14.78
2019-06-27T03:56:10.407Z,13.68
2019-06-27T03:56:45.433Z,17.65
2019-06-27T03:57:20.609Z,16.07
2019-06-27T03:57:54.954Z,14.10
2019-06-27T03:58:30.062Z,18.35
2019-06-27T03:59:12.119Z,13.48
2019-06-27T03:59:41.085Z,20.68
2019-06-27T04:00:22.666Z,19.98
2019-06-27T04:00:57.876Z,27.98
2019-06-27T04:01:32.454Z,23.90
2019-06-27T04:02:07.608Z,17.05
2019-06-27T04:02:42.637Z,15.38
2019-06-27T04:03:17.214Z,18.52
2019-06-27T04:03:52.246Z,16.15
2019-06-27T04:04:27.247Z,12.75
2019-06-27T04:05:01.588Z,12.03
2019-06-27T04:05:36.603Z,11.88
2019-06-27T04:06:11.540Z,14.15
2019-06-27T04:06:46.087Z,14.80
2019-06-27T04:07:21.185Z,12.50
2019-06-27T04:07:56.261Z,13.00
2019-06-27T04:08:30.569Z,13.62
2019-06-27T04:09:06.536Z,12.85
2019-06-27T04:09:41.493Z,12.78
2019-06-27T04:10:17.614Z,17.50
2019-06-27T04:10:52.907Z,12.33
2019-06-27T04:11:28.258Z,11.30
2019-06-27T04:12:02.413Z,12.55
2019-06-27T04:12:40.639Z,12.25
2019-06-27T04:13:15.627Z,15.23
2019-06-27T04:13:50.065Z,16.70
2019-06-27T04:14:25.006Z,12.47
2019-06-27T04:14:59.891Z,12.40
2019-06-27T04:15:34.204Z,13.30
2019-06-27T04:16:09.098Z,12.45
2019-06-27T04:16:48.715Z,13.95
2019-06-27T04:17:19.975Z,11.75
2019-06-27T04:17:55.002Z,11.20
2019-06-27T04:18:29.825Z,13.03
2019-06-27T04:19:04.363Z,11.95
2019-06-27T04:19:39.395Z,16.52
2019-06-27T04:20:15.234Z,11.35
2019-06-27T04:20:49.719Z,13.28
2019-06-27T04:21:25.008Z,11.57
2019-06-27T04:21:59.944Z,12.15
2019-06-27T04:22:34.465Z,14.45
2019-06-27T04:23:09.397Z,12.23
2019-06-27T04:23:44.569Z,11.40
2019-06-27T04:24:18.994Z,11.48
2019-06-27T04:24:53.921Z,10.23
2019-06-27T04:25:28.833Z,12.50
2019-06-27T04:26:03.456Z,13.98
2019-06-27T04:26:38.535Z,10.10
2019-06-27T04:27:13.523Z,11.25
2019-06-27T04:27:47.909Z,11.40
2019-06-27T04:28:22.672Z,11.03
2019-06-27T04:28:58.864Z,12.03
2019-06-27T04:29:34.601Z,15.08
2019-06-27T04:30:10.189Z,9.65
2019-06-27T04:30:45.547Z,11.28
2019-06-27T04:31:19.796Z,9.98
2019-06-27T04:31:54.786Z,10.45
2019-06-27T04:32:29.847Z,13.88
2019-06-27T04:33:04.278Z,10.00
2019-06-27T04:33:39.223Z,10.08
2019-06-27T04:34:19.259Z,14.83
2019-06-27T04:34:50.155Z,15.28
2019-06-27T04:35:25.275Z,11.35
2019-06-27T04:36:00.579Z,13.43
2019-06-27T04:36:34.990Z,14.87
2019-06-27T04:37:09.974Z,11.45
2019-06-27T04:37:45.154Z,9.30
2019-06-27T04:38:19.676Z,8.63
2019-06-27T04:38:54.811Z,10.38
2019-06-27T04:39:29.701Z,12.00
2019-06-27T04:40:03.853Z,9.98
2019-06-27T04:40:38.801Z,9.93
2019-06-27T04:41:13.791Z,11.73
2019-06-27T04:41:48.420Z,11.75
2019-06-27T04:42:23.316Z,10.58
2019-06-27T04:42:58.329Z,9.85
2019-06-27T04:43:32.705Z,9.60
2019-06-27T04:44:07.806Z,10.20
2019-06-27T04:44:42.670Z,13.78
2019-06-27T04:45:17.213Z,12.45
2019-06-27T04:45:52.306Z,9.90
2019-06-27T04:46:27.258Z,9.90
2019-06-27T04:47:01.646Z,14.85
2019-06-27T04:47:36.380Z,9.90
2019-06-27T04:48:11.440Z,11.55
2019-06-27T04:48:45.677Z,12.10
2019-06-27T04:49:20.610Z,10.45
2019-06-27T04:49:55.720Z,14.18
2019-06-27T04:50:30.157Z,10.75
2019-06-27T04:51:05.032Z,12.07
2019-06-27T04:51:40.076Z,9.18
2019-06-27T04:52:14.780Z,10.80
2019-06-27T04:52:49.676Z,10.30
2019-06-27T04:53:24.735Z,13.88
2019-06-27T04:53:59.002Z,9.13
2019-06-27T04:54:34.109Z,11.03
2019-06-27T04:55:09.464Z,9.28
2019-06-27T04:55:44.098Z,12.13
2019-06-27T04:56:18.966Z,9.03
2019-06-27T04:56:53.997Z,9.45
2019-06-27T04:57:28.346Z,11.15
2019-06-27T04:58:03.629Z,11.90
2019-06-27T04:58:41.372Z,8.68
2019-06-27T04:59:16.055Z,8.38
2019-06-27T04:59:53.991Z,8.95
2019-06-27T05:00:30.559Z,9.20
2019-06-27T05:01:05.449Z,8.28
2019-06-27T05:01:40.527Z,9.53
2019-06-27T05:02:15.654Z,9.78
2019-06-27T05:02:50.078Z,8.73
2019-06-27T05:03:25.099Z,11.05
2019-06-27T05:04:00.024Z,9.45
2019-06-27T05:04:34.494Z,13.55
2019-06-27T05:05:09.817Z,22.82
2019-06-27T05:05:44.807Z,9.70
2019-06-27T05:06:19.017Z,12.85
2019-06-27T05:06:54.080Z,8.73
2019-06-27T05:07:29.208Z,10.50
2019-06-27T05:08:03.731Z,8.30
2019-06-27T05:08:38.631Z,13.13
2019-06-27T05:09:13.448Z,8.00
2019-06-27T05:09:47.747Z,9.48
2019-06-27T05:10:22.725Z,9.13
2019-06-27T05:10:57.593Z,8.35
2019-06-27T05:11:32.094Z,7.55
2019-06-27T05:12:07.146Z,9.53
2019-06-27T05:12:41.968Z,8.03
2019-06-27T05:13:16.122Z,8.43
2019-06-27T05:13:54.143Z,8.03
2019-06-27T05:14:32.450Z,7.90
2019-06-27T05:15:05.641Z,7.62
2019-06-27T05:15:40.549Z,7.53
2019-06-27T05:16:15.549Z,11.75
2019-06-27T05:16:49.973Z,10.10
2019-06-27T05:17:24.970Z,7.92
2019-06-27T05:17:59.932Z,8.10
2019-06-27T05:18:34.420Z,8.68
2019-06-27T05:19:09.417Z,8.45
2019-06-27T05:19:44.438Z,7.65
2019-06-27T05:20:18.853Z,6.97
2019-06-27T05:20:53.731Z,8.78
2019-06-27T05:21:28.550Z,9.53
2019-06-27T05:22:02.919Z,8.38
2019-06-27T05:22:37.818Z,7.12
2019-06-27T05:23:12.877Z,10.60
2019-06-27T05:23:47.318Z,9.13
2019-06-27T05:24:22.269Z,7.72
2019-06-27T05:24:57.191Z,11.48
2019-06-27T05:25:31.481Z,16.57
2019-06-27T05:26:06.618Z,12.88
2019-06-27T05:26:41.469Z,16.82
2019-06-27T05:27:15.923Z,7.55
2019-06-27T05:27:51.167Z,7.85
2019-06-27T05:28:25.885Z,7.15
2019-06-27T05:29:00.266Z,6.17
2019-06-27T05:29:35.294Z,6.90
2019-06-27T05:30:10.773Z,6.33
2019-06-27T05:30:45.054Z,8.68
2019-06-27T05:31:19.904Z,9.05
2019-06-27T05:31:54.879Z,6.95
2019-06-27T05:32:29.335Z,17.25
2019-06-27T05:33:04.200Z,12.75
2019-06-27T05:33:39.238Z,13.72
2019-06-27T05:34:13.429Z,8.90
2019-06-27T05:34:48.568Z,6.70
2019-06-27T05:35:23.580Z,10.10
2019-06-27T05:35:58.177Z,6.87
2019-06-27T05:36:33.203Z,6.53
2019-06-27T05:37:08.120Z,6.58
2019-06-27T05:37:42.782Z,9.65
2019-06-27T05:38:17.744Z,7.25
2019-06-27T05:38:52.782Z,6.65
2019-06-27T05:39:27.548Z,8.45
2019-06-27T05:40:02.592Z,12.90
2019-06-27T05:40:37.403Z,6.30
2019-06-27T05:41:11.907Z,7.28
2019-06-27T05:41:49.662Z,6.97
2019-06-27T05:42:24.133Z,6.78
2019-06-27T05:42:58.684Z,10.95
2019-06-27T05:43:33.663Z,8.65
2019-06-27T05:44:08.607Z,6.67
2019-06-27T05:44:43.049Z,10.70
2019-06-27T05:45:18.106Z,6.87
2019-06-27T05:45:53.291Z,9.25
2019-06-27T05:46:27.776Z,7.92
2019-06-27T05:47:02.657Z,7.37
2019-06-27T05:47:37.673Z,7.28
2019-06-27T05:48:12.094Z,7.35
2019-06-27T05:48:46.968Z,7.05
2019-06-27T05:49:22.009Z,6.92
2019-06-27T05:49:56.387Z,10.72
2019-06-27T05:50:31.405Z,6.75
2019-06-27T05:51:06.265Z,7.45
2019-06-27T05:51:40.688Z,6.97
2019-06-27T05:52:15.666Z,7.15
2019-06-27T05:52:50.756Z,6.62
2019-06-27T05:53:25.447Z,7.45
2019-06-27T05:54:00.533Z,8.53
2019-06-27T05:54:35.667Z,8.43
2019-06-27T05:55:10.170Z,7.72
2019-06-27T05:55:45.007Z,9.13
2019-06-27T05:56:20.193Z,8.43
2019-06-27T05:56:54.630Z,9.00
2019-06-27T05:57:29.503Z,11.40
2019-06-27T05:58:04.399Z,6.70
2019-06-27T05:58:38.800Z,7.60
2019-06-27T05:59:13.796Z,6.62
2019-06-27T05:59:48.897Z,6.47
2019-06-27T06:00:28.768Z,7.92
2019-06-27T06:01:00.890Z,8.73
2019-06-27T06:01:35.803Z,6.20
2019-06-27T06:02:10.249Z,6.17
2019-06-27T06:02:45.233Z,8.05
2019-06-27T06:03:20.497Z,8.10
2019-06-27T06:03:55.030Z,7.65
2019-06-27T06:04:29.885Z,8.18
2019-06-27T06:05:05.089Z,8.35
2019-06-27T06:05:40.735Z,8.68
2019-06-27T06:06:15.993Z,8.60
2019-06-27T06:06:50.924Z,7.15
2019-06-27T06:07:25.561Z,6.80
2019-06-27T06:08:00.548Z,7.65
2019-06-27T06:08:35.295Z,9.18
2019-06-27T06:09:09.736Z,8.40
2019-06-27T06:09:44.775Z,7.97
2019-06-27T06:10:19.875Z,5.93
2019-06-27T06:10:54.206Z,10.23
2019-06-27T06:11:29.225Z,7.50
2019-06-27T06:12:04.135Z,9.33
2019-06-27T06:12:38.694Z,13.53
2019-06-27T06:13:13.764Z,6.03
2019-06-27T06:13:48.846Z,5.43
2019-06-27T06:14:23.374Z,8.70
2019-06-27T06:14:58.191Z,7.20
2019-06-27T06:15:33.771Z,6.80
2019-06-27T06:16:08.218Z,5.73
2019-06-27T06:16:43.161Z,6.17
2019-06-27T06:17:18.108Z,6.60
2019-06-27T06:17:52.607Z,5.70
2019-06-27T06:18:27.413Z,7.90
2019-06-27T06:19:02.335Z,6.12
2019-06-27T06:19:36.851Z,5.70
2019-06-27T06:20:12.330Z,11.67
2019-06-27T06:20:47.321Z,6.57
2019-06-27T06:21:21.718Z,7.73
2019-06-27T06:21:56.597Z,10.33
2019-06-27T06:22:31.752Z,9.18
2019-06-27T06:23:06.161Z,6.37
2019-06-27T06:23:41.362Z,17.77
2019-06-27T06:24:16.298Z,8.63
2019-06-27T06:24:50.581Z,8.95
2019-06-27T06:25:25.563Z,9.80
2019-06-27T06:26:00.834Z,7.28
2019-06-27T06:26:35.567Z,6.30
2019-06-27T06:27:10.683Z,9.25
2019-06-27T06:27:45.598Z,7.72
2019-06-27T06:28:20.020Z,7.87
2019-06-27T06:28:54.998Z,7.28
2019-06-27T06:29:30.184Z,8.83
2019-06-27T06:30:06.236Z,7.30
2019-06-27T06:30:44.930Z,6.67
2019-06-27T06:31:17.717Z,6.30
2019-06-27T06:31:52.206Z,14.58
2019-06-27T06:32:27.169Z,13.68
2019-06-27T06:33:02.065Z,7.08
2019-06-27T06:33:36.750Z,6.95
2019-06-27T06:34:11.806Z,6.60
2019-06-27T06:34:46.846Z,6.00
2019-06-27T06:35:21.241Z,6.83
2019-06-27T06:35:56.017Z,7.97
2019-06-27T06:36:30.946Z,6.70
2019-06-27T06:37:08.002Z,8.53
2019-06-27T06:37:41.823Z,8.15
2019-06-27T06:38:16.895Z,8.20
2019-06-27T06:38:51.120Z,7.10
2019-06-27T06:39:26.317Z,7.05
2019-06-27T06:40:01.186Z,6.25
2019-06-27T06:40:35.716Z,9.90
2019-06-27T06:41:10.700Z,6.10
2019-06-27T06:41:45.691Z,8.58
2019-06-27T06:42:20.633Z,7.47
2019-06-27T06:42:59.459Z,6.00
2019-06-27T06:43:32.460Z,6.12
2019-06-27T06:44:06.848Z,7.28
2019-06-27T06:44:42.030Z,9.10
2019-06-27T06:45:17.050Z,7.95
2019-06-27T06:45:51.571Z,8.03
2019-06-27T06:46:26.402Z,8.50
2019-06-27T06:47:01.292Z,5.78
2019-06-27T06:47:35.652Z,7.50
2019-06-27T06:48:10.785Z,7.60
2019-06-27T06:48:45.807Z,7.40
2019-06-27T06:49:20.262Z,9.20
2019-06-27T06:49:55.287Z,8.15
2019-06-27T06:50:30.247Z,12.18
2019-06-27T06:51:04.612Z,6.20
2019-06-27T06:51:39.579Z,7.75
2019-06-27T06:52:14.664Z,8.13
2019-06-27T06:52:49.074Z,6.30
2019-06-27T06:53:23.948Z,10.45
2019-06-27T06:53:58.737Z,9.63
2019-06-27T06:54:33.304Z,10.78
2019-06-27T06:55:08.606Z,11.28
2019-06-27T06:55:43.651Z,9.40
2019-06-27T06:56:19.599Z,7.70
2019-06-27T06:56:54.482Z,8.38
2019-06-27T06:57:29.402Z,9.13
2019-06-27T06:58:03.849Z,11.30
2019-06-27T06:58:39.072Z,11.12
2019-06-27T06:59:13.838Z,12.82
2019-06-27T06:59:48.392Z,6.85
2019-06-27T07:00:23.579Z,6.58
2019-06-27T07:01:01.978Z,8.65
2019-06-27T07:01:34.673Z,6.42
2019-06-27T07:02:09.818Z,8.03
2019-06-27T07:02:44.957Z,7.90
2019-06-27T07:03:19.531Z,10.05
2019-06-27T07:03:54.548Z,10.68
2019-06-27T07:04:29.725Z,6.10
2019-06-27T07:05:04.381Z,8.58
2019-06-27T07:05:39.246Z,7.35
2019-06-27T07:06:14.036Z,8.43
2019-06-27T07:06:48.246Z,7.15
2019-06-27T07:07:23.470Z,7.90
2019-06-27T07:07:58.474Z,7.10
2019-06-27T07:08:33.208Z,6.22
2019-06-27T07:09:08.301Z,9.53
2019-06-27T07:09:43.397Z,6.70
2019-06-27T07:10:18.176Z,7.08
2019-06-27T07:10:53.191Z,8.60
2019-06-27T07:11:28.094Z,6.70
2019-06-27T07:12:02.490Z,6.95
2019-06-27T07:12:37.515Z,4.97
2019-06-27T07:13:12.423Z,6.85
2019-06-27T07:13:46.944Z,7.72
2019-06-27T07:14:21.863Z,7.35
2019-06-27T07:14:56.987Z,7.30
2019-06-27T07:15:31.296Z,9.85
2019-06-27T07:16:06.447Z,5.87
2019-06-27T07:16:41.289Z,5.08
2019-06-27T07:17:15.655Z,7.72
2019-06-27T07:17:50.642Z,5.55
2019-06-27T07:18:25.887Z,8.93
2019-06-27T07:19:00.151Z,5.45
2019-06-27T07:19:35.203Z,6.95
2019-06-27T07:20:11.450Z,6.92
2019-06-27T07:20:45.901Z,9.63
2019-06-27T07:21:21.004Z,9.55
2019-06-27T07:21:56.129Z,5.72
2019-06-27T07:22:30.513Z,5.55
2019-06-27T07:23:05.430Z,7.70
2019-06-27T07:23:40.557Z,9.63
2019-06-27T07:24:15.132Z,9.15
2019-06-27T07:24:50.095Z,6.97
2019-06-27T07:25:25.172Z,9.58
2019-06-27T07:25:59.730Z,7.60
2019-06-27T07:26:34.626Z,5.55
2019-06-27T07:27:09.657Z,7.65
2019-06-27T07:27:44.484Z,5.70
2019-06-27T07:28:19.505Z,5.87
2019-06-27T07:28:54.316Z,9.45
2019-06-27T07:29:28.745Z,11.57
2019-06-27T07:30:03.904Z,7.67
2019-06-27T07:30:38.868Z,5.97
2019-06-27T07:31:17.822Z,15.70
2019-06-27T07:31:50.148Z,15.75
2019-06-27T07:32:25.315Z,7.20
2019-06-27T07:32:59.663Z,11.10
2019-06-27T07:33:34.471Z,7.13
2019-06-27T07:34:09.605Z,5.40